sensor_id;sensor_type;location;lat;lon;timestamp;P1;durP1;ratioP1;P2;durP2;ratioP2
16039;SDS011;8124;48.634;8.120;2022-12-20T00:03:24;48.33;;;39.63;;
16039;SDS011;8124;48.634;8.120;2022-12-20T00:08:29;50.70;;;41.33;;
16039;SDS011;8124;48.634;8.120;2022-12-20T00:13:33;43.63;;;38.17;;
16039;SDS011;8124;48.634;8.120;2022-12-20T00:18:36;44.33;;;38.20;;
16039;SDS011;8124;48.634;8.120;2022-12-20T00:23:41;47.33;;;39.60;;
16039;SDS011;8124;48.634;8.120;2022-12-20T00:28:44;45.03;;;38.90;;
16039;SDS011;8124;48.634;8.120;2022-12-20T00:33:49;44.70;;;38.17;;
16039;SDS011;8124;48.634;8.120;2022-12-20T00:38:56;48.87;;;40.33;;
16039;SDS011;8124;48.634;8.120;2022-12-20T00:44:00;46.13;;;38.10;;
16039;SDS011;8124;48.634;8.120;2022-12-20T00:49:04;47.07;;;39.37;;
16039;SDS011;8124;48.634;8.120;2022-12-20T00:54:09;43.27;;;38.10;;
16039;SDS011;8124;48.634;8.120;2022-12-20T00:59:12;48.03;;;39.55;;
16039;SDS011;8124;48.634;8.120;2022-12-20T01:04:15;40.00;;;35.53;;
16039;SDS011;8124;48.634;8.120;2022-12-20T01:09:19;43.13;;;37.03;;
16039;SDS011;8124;48.634;8.120;2022-12-20T01:14:22;37.63;;;33.63;;
16039;SDS011;8124;48.634;8.120;2022-12-20T01:19:25;34.83;;;31.23;;
16039;SDS011;8124;48.634;8.120;2022-12-20T01:24:29;34.97;;;31.30;;
16039;SDS011;8124;48.634;8.120;2022-12-20T01:29:32;35.87;;;32.13;;
16039;SDS011;8124;48.634;8.120;2022-12-20T01:34:35;38.73;;;34.60;;
16039;SDS011;8124;48.634;8.120;2022-12-20T01:39:45;43.43;;;37.73;;
16039;SDS011;8124;48.634;8.120;2022-12-20T01:44:53;46.93;;;38.63;;
16039;SDS011;8124;48.634;8.120;2022-12-20T01:49:58;42.87;;;38.27;;
16039;SDS011;8124;48.634;8.120;2022-12-20T01:55:06;43.43;;;37.33;;
16039;SDS011;8124;48.634;8.120;2022-12-20T02:00:12;42.80;;;37.47;;
16039;SDS011;8124;48.634;8.120;2022-12-20T02:05:17;44.00;;;37.63;;
16039;SDS011;8124;48.634;8.120;2022-12-20T02:10:25;45.23;;;38.20;;
16039;SDS011;8124;48.634;8.120;2022-12-20T02:15:38;44.10;;;37.87;;
16039;SDS011;8124;48.634;8.120;2022-12-20T02:26:29;44.28;;;37.85;;
16039;SDS011;8124;48.634;8.120;2022-12-20T02:31:46;44.73;;;37.67;;
16039;SDS011;8124;48.634;8.120;2022-12-20T02:36:54;43.03;;;37.60;;
16039;SDS011;8124;48.634;8.120;2022-12-20T02:41:58;47.83;;;38.57;;
16039;SDS011;8124;48.634;8.120;2022-12-20T02:47:07;44.45;;;36.75;;
16039;SDS011;8124;48.634;8.120;2022-12-20T02:52:16;42.97;;;37.33;;
16039;SDS011;8124;48.634;8.120;2022-12-20T02:57:22;41.17;;;35.83;;
16039;SDS011;8124;48.634;8.120;2022-12-20T03:02:33;40.23;;;35.83;;
16039;SDS011;8124;48.634;8.120;2022-12-20T03:07:57;40.23;;;35.43;;
16039;SDS011;8124;48.634;8.120;2022-12-20T03:13:00;41.75;;;35.88;;
16039;SDS011;8124;48.634;8.120;2022-12-20T03:18:08;39.15;;;34.80;;
16039;SDS011;8124;48.634;8.120;2022-12-20T03:23:11;40.10;;;35.27;;
16039;SDS011;8124;48.634;8.120;2022-12-20T03:28:14;39.60;;;35.13;;
16039;SDS011;8124;48.634;8.120;2022-12-20T03:33:18;39.20;;;35.00;;
16039;SDS011;8124;48.634;8.120;2022-12-20T03:38:21;39.60;;;35.30;;
16039;SDS011;8124;48.634;8.120;2022-12-20T03:43:30;39.65;;;34.63;;
16039;SDS011;8124;48.634;8.120;2022-12-20T03:48:34;41.23;;;35.40;;
16039;SDS011;8124;48.634;8.120;2022-12-20T03:53:38;39.70;;;35.30;;
16039;SDS011;8124;48.634;8.120;2022-12-20T03:58:42;39.10;;;34.87;;
16039;SDS011;8124;48.634;8.120;2022-12-20T04:03:48;38.80;;;34.60;;
16039;SDS011;8124;48.634;8.120;2022-12-20T04:08:51;39.00;;;34.87;;
16039;SDS011;8124;48.634;8.120;2022-12-20T04:14:01;39.75;;;34.42;;
16039;SDS011;8124;48.634;8.120;2022-12-20T04:19:07;39.35;;;34.22;;
16039;SDS011;8124;48.634;8.120;2022-12-20T04:24:18;39.45;;;35.15;;
16039;SDS011;8124;48.634;8.120;2022-12-20T04:29:34;39.20;;;34.95;;
16039;SDS011;8124;48.634;8.120;2022-12-20T04:34:41;39.05;;;34.85;;
16039;SDS011;8124;48.634;8.120;2022-12-20T04:39:44;39.97;;;35.25;;
16039;SDS011;8124;48.634;8.120;2022-12-20T04:44:56;40.78;;;36.45;;
16039;SDS011;8124;48.634;8.120;2022-12-20T04:50:04;41.40;;;35.20;;
16039;SDS011;8124;48.634;8.120;2022-12-20T04:55:08;39.10;;;34.80;;
16039;SDS011;8124;48.634;8.120;2022-12-20T05:00:12;40.60;;;36.20;;
16039;SDS011;8124;48.634;8.120;2022-12-20T05:05:20;39.88;;;35.40;;
16039;SDS011;8124;48.634;8.120;2022-12-20T05:10:26;39.22;;;34.97;;
16039;SDS011;8124;48.634;8.120;2022-12-20T05:15:33;42.97;;;37.63;;
16039;SDS011;8124;48.634;8.120;2022-12-20T05:20:39;40.22;;;35.38;;
16039;SDS011;8124;48.634;8.120;2022-12-20T05:25:43;40.38;;;35.60;;
16039;SDS011;8124;48.634;8.120;2022-12-20T05:31:05;43.20;;;36.95;;
16039;SDS011;8124;48.634;8.120;2022-12-20T05:36:11;44.05;;;36.53;;
16039;SDS011;8124;48.634;8.120;2022-12-20T05:41:14;47.08;;;38.50;;
16039;SDS011;8124;48.634;8.120;2022-12-20T05:46:21;41.45;;;36.88;;
16039;SDS011;8124;48.634;8.120;2022-12-20T05:51:36;41.28;;;36.13;;
16039;SDS011;8124;48.634;8.120;2022-12-20T05:56:51;41.88;;;37.10;;
16039;SDS011;8124;48.634;8.120;2022-12-20T06:02:00;45.10;;;38.13;;
16039;SDS011;8124;48.634;8.120;2022-12-20T06:07:05;45.85;;;36.88;;
16039;SDS011;8124;48.634;8.120;2022-12-20T06:12:09;41.63;;;37.10;;
16039;SDS011;8124;48.634;8.120;2022-12-20T06:17:13;43.33;;;37.33;;
16039;SDS011;8124;48.634;8.120;2022-12-20T06:22:18;44.05;;;38.25;;
16039;SDS011;8124;48.634;8.120;2022-12-20T06:27:25;117.00;;;72.27;;
16039;SDS011;8124;48.634;8.120;2022-12-20T06:32:45;132.27;;;74.60;;
16039;SDS011;8124;48.634;8.120;2022-12-20T06:37:50;70.80;;;49.73;;
16039;SDS011;8124;48.634;8.120;2022-12-20T06:42:54;50.78;;;40.92;;
16039;SDS011;8124;48.634;8.120;2022-12-20T06:47:58;43.30;;;38.13;;
16039;SDS011;8124;48.634;8.120;2022-12-20T06:53:05;45.92;;;39.25;;
16039;SDS011;8124;48.634;8.120;2022-12-20T06:58:08;43.33;;;37.90;;
16039;SDS011;8124;48.634;8.120;2022-12-20T07:03:11;48.92;;;39.10;;
16039;SDS011;8124;48.634;8.120;2022-12-20T07:08:16;44.35;;;38.38;;
16039;SDS011;8124;48.634;8.120;2022-12-20T07:13:19;48.00;;;41.50;;
16039;SDS011;8124;48.634;8.120;2022-12-20T07:18:22;46.42;;;39.28;;
16039;SDS011;8124;48.634;8.120;2022-12-20T07:23:27;46.03;;;40.45;;
16039;SDS011;8124;48.634;8.120;2022-12-20T07:28:30;43.78;;;38.65;;
16039;SDS011;8124;48.634;8.120;2022-12-20T07:33:33;47.03;;;38.87;;
16039;SDS011;8124;48.634;8.120;2022-12-20T07:38:38;50.85;;;39.92;;
16039;SDS011;8124;48.634;8.120;2022-12-20T07:43:41;47.87;;;39.57;;
16039;SDS011;8124;48.634;8.120;2022-12-20T07:48:45;47.50;;;40.60;;
16039;SDS011;8124;48.634;8.120;2022-12-20T07:53:50;48.10;;;40.87;;
16039;SDS011;8124;48.634;8.120;2022-12-20T07:58:55;45.83;;;39.92;;
16039;SDS011;8124;48.634;8.120;2022-12-20T08:04:01;45.13;;;38.37;;
16039;SDS011;8124;48.634;8.120;2022-12-20T08:09:10;50.00;;;42.33;;
16039;SDS011;8124;48.634;8.120;2022-12-20T08:14:15;48.97;;;39.80;;
16039;SDS011;8124;48.634;8.120;2022-12-20T08:19:20;47.93;;;40.17;;
16039;SDS011;8124;48.634;8.120;2022-12-20T08:24:33;45.67;;;38.47;;
16039;SDS011;8124;48.634;8.120;2022-12-20T08:29:36;46.20;;;40.63;;
16039;SDS011;8124;48.634;8.120;2022-12-20T08:34:39;45.50;;;39.55;;
16039;SDS011;8124;48.634;8.120;2022-12-20T08:39:43;45.22;;;38.97;;
16039;SDS011;8124;48.634;8.120;2022-12-20T08:44:46;45.38;;;37.95;;
16039;SDS011;8124;48.634;8.120;2022-12-20T08:49:49;44.93;;;39.73;;
16039;SDS011;8124;48.634;8.120;2022-12-20T08:54:55;50.85;;;41.10;;
16039;SDS011;8124;48.634;8.120;2022-12-20T09:00:02;51.27;;;40.23;;
16039;SDS011;8124;48.634;8.120;2022-12-20T09:05:05;49.85;;;40.17;;
16039;SDS011;8124;48.634;8.120;2022-12-20T09:10:10;47.77;;;41.10;;
16039;SDS011;8124;48.634;8.120;2022-12-20T09:15:15;49.75;;;40.30;;
16039;SDS011;8124;48.634;8.120;2022-12-20T09:20:17;49.40;;;40.25;;
16039;SDS011;8124;48.634;8.120;2022-12-20T09:25:22;47.22;;;39.72;;
16039;SDS011;8124;48.634;8.120;2022-12-20T09:30:24;49.42;;;41.35;;
16039;SDS011;8124;48.634;8.120;2022-12-20T09:35:27;46.90;;;39.72;;
16039;SDS011;8124;48.634;8.120;2022-12-20T09:40:32;49.83;;;41.30;;
16039;SDS011;8124;48.634;8.120;2022-12-20T09:45:37;48.42;;;39.65;;
16039;SDS011;8124;48.634;8.120;2022-12-20T09:50:42;46.10;;;40.33;;
16039;SDS011;8124;48.634;8.120;2022-12-20T09:55:58;51.55;;;40.97;;
16039;SDS011;8124;48.634;8.120;2022-12-20T10:01:10;46.40;;;40.58;;
16039;SDS011;8124;48.634;8.120;2022-12-20T10:06:28;50.70;;;40.78;;
16039;SDS011;8124;48.634;8.120;2022-12-20T10:11:44;46.80;;;41.05;;
16039;SDS011;8124;48.634;8.120;2022-12-20T10:17:00;47.13;;;40.45;;
16039;SDS011;8124;48.634;8.120;2022-12-20T10:22:07;48.08;;;41.15;;
16039;SDS011;8124;48.634;8.120;2022-12-20T10:27:18;48.65;;;40.95;;
16039;SDS011;8124;48.634;8.120;2022-12-20T10:32:22;49.13;;;41.13;;
16039;SDS011;8124;48.634;8.120;2022-12-20T10:37:28;51.65;;;41.97;;
16039;SDS011;8124;48.634;8.120;2022-12-20T10:42:35;54.47;;;43.17;;
16039;SDS011;8124;48.634;8.120;2022-12-20T10:47:41;67.88;;;54.58;;
16039;SDS011;8124;48.634;8.120;2022-12-20T10:53:01;54.75;;;44.13;;
16039;SDS011;8124;48.634;8.120;2022-12-20T10:58:27;55.17;;;42.60;;
16039;SDS011;8124;48.634;8.120;2022-12-20T11:03:36;51.95;;;43.17;;
16039;SDS011;8124;48.634;8.120;2022-12-20T11:14:24;53.95;;;45.45;;
16039;SDS011;8124;48.634;8.120;2022-12-20T11:19:42;53.08;;;43.28;;
16039;SDS011;8124;48.634;8.120;2022-12-20T11:24:56;50.47;;;43.00;;
16039;SDS011;8124;48.634;8.120;2022-12-20T11:30:11;49.25;;;41.88;;
16039;SDS011;8124;48.634;8.120;2022-12-20T11:35:19;52.85;;;42.05;;
16039;SDS011;8124;48.634;8.120;2022-12-20T11:40:28;50.15;;;41.67;;
16039;SDS011;8124;48.634;8.120;2022-12-20T11:45:36;47.10;;;41.97;;
16039;SDS011;8124;48.634;8.120;2022-12-20T11:50:48;49.97;;;42.38;;
16039;SDS011;8124;48.634;8.120;2022-12-20T11:56:17;47.08;;;41.00;;
16039;SDS011;8124;48.634;8.120;2022-12-20T12:01:28;51.05;;;42.38;;
16039;SDS011;8124;48.634;8.120;2022-12-20T12:06:36;52.72;;;42.92;;
16039;SDS011;8124;48.634;8.120;2022-12-20T12:11:44;51.17;;;42.28;;
16039;SDS011;8124;48.634;8.120;2022-12-20T12:17:12;49.60;;;42.65;;
16039;SDS011;8124;48.634;8.120;2022-12-20T12:22:23;51.40;;;42.42;;
16039;SDS011;8124;48.634;8.120;2022-12-20T12:27:31;56.67;;;46.70;;
16039;SDS011;8124;48.634;8.120;2022-12-20T12:32:38;60.65;;;45.50;;
16039;SDS011;8124;48.634;8.120;2022-12-20T12:37:53;58.58;;;46.63;;
16039;SDS011;8124;48.634;8.120;2022-12-20T12:43:14;53.10;;;43.78;;
16039;SDS011;8124;48.634;8.120;2022-12-20T12:48:44;54.03;;;43.33;;
16039;SDS011;8124;48.634;8.120;2022-12-20T12:53:52;58.03;;;42.33;;
16039;SDS011;8124;48.634;8.120;2022-12-20T13:04:54;52.47;;;42.35;;
16039;SDS011;8124;48.634;8.120;2022-12-20T13:09:59;90.80;;;58.22;;
16039;SDS011;8124;48.634;8.120;2022-12-20T13:15:23;70.78;;;51.38;;
16039;SDS011;8124;48.634;8.120;2022-12-20T13:21:26;66.38;;;50.22;;
16039;SDS011;8124;48.634;8.120;2022-12-20T13:26:42;42.25;;;35.72;;
16039;SDS011;8124;48.634;8.120;2022-12-20T13:31:52;38.53;;;34.40;;
16039;SDS011;8124;48.634;8.120;2022-12-20T13:36:58;38.65;;;33.63;;
16039;SDS011;8124;48.634;8.120;2022-12-20T13:42:12;36.60;;;32.70;;
16039;SDS011;8124;48.634;8.120;2022-12-20T13:47:36;36.53;;;32.63;;
16039;SDS011;8124;48.634;8.120;2022-12-20T13:52:44;51.45;;;42.55;;
16039;SDS011;8124;48.634;8.120;2022-12-20T13:57:47;50.10;;;41.20;;
16039;SDS011;8124;48.634;8.120;2022-12-20T14:02:52;51.75;;;44.20;;
16039;SDS011;8124;48.634;8.120;2022-12-20T14:07:58;51.17;;;43.25;;
16039;SDS011;8124;48.634;8.120;2022-12-20T14:13:13;49.47;;;42.08;;
16039;SDS011;8124;48.634;8.120;2022-12-20T14:18:21;51.42;;;42.53;;
16039;SDS011;8124;48.634;8.120;2022-12-20T14:23:28;49.88;;;42.80;;
16039;SDS011;8124;48.634;8.120;2022-12-20T14:28:37;49.45;;;42.78;;
16039;SDS011;8124;48.634;8.120;2022-12-20T14:33:42;56.58;;;41.85;;
16039;SDS011;8124;48.634;8.120;2022-12-20T14:38:49;49.47;;;41.53;;
16039;SDS011;8124;48.634;8.120;2022-12-20T14:43:53;60.20;;;45.28;;
16039;SDS011;8124;48.634;8.120;2022-12-20T14:49:06;56.42;;;46.22;;
16039;SDS011;8124;48.634;8.120;2022-12-20T14:54:20;60.42;;;45.95;;
16039;SDS011;8124;48.634;8.120;2022-12-20T14:59:55;51.72;;;44.25;;
16039;SDS011;8124;48.634;8.120;2022-12-20T15:05:06;57.45;;;44.65;;
16039;SDS011;8124;48.634;8.120;2022-12-20T15:10:12;59.78;;;46.78;;
16039;SDS011;8124;48.634;8.120;2022-12-20T15:15:15;61.03;;;48.85;;
16039;SDS011;8124;48.634;8.120;2022-12-20T15:20:32;62.58;;;49.28;;
16039;SDS011;8124;48.634;8.120;2022-12-20T15:25:36;61.05;;;48.72;;
16039;SDS011;8124;48.634;8.120;2022-12-20T15:30:46;54.25;;;44.90;;
16039;SDS011;8124;48.634;8.120;2022-12-20T15:35:51;56.47;;;46.17;;
16039;SDS011;8124;48.634;8.120;2022-12-20T15:41:01;64.38;;;48.78;;
16039;SDS011;8124;48.634;8.120;2022-12-20T15:46:06;63.67;;;49.55;;
16039;SDS011;8124;48.634;8.120;2022-12-20T15:51:12;66.20;;;49.20;;
16039;SDS011;8124;48.634;8.120;2022-12-20T15:56:20;61.35;;;47.38;;
16039;SDS011;8124;48.634;8.120;2022-12-20T16:01:26;59.80;;;45.95;;
16039;SDS011;8124;48.634;8.120;2022-12-20T16:06:43;85.10;;;58.13;;
16039;SDS011;8124;48.634;8.120;2022-12-20T16:11:49;143.80;;;93.88;;
16039;SDS011;8124;48.634;8.120;2022-12-20T16:16:52;119.43;;;88.28;;
16039;SDS011;8124;48.634;8.120;2022-12-20T16:21:55;123.53;;;86.78;;
16039;SDS011;8124;48.634;8.120;2022-12-20T16:27:00;62.88;;;48.10;;
16039;SDS011;8124;48.634;8.120;2022-12-20T16:32:07;67.18;;;48.55;;
16039;SDS011;8124;48.634;8.120;2022-12-20T16:37:15;44.33;;;36.75;;
16039;SDS011;8124;48.634;8.120;2022-12-20T16:42:19;41.20;;;36.55;;
16039;SDS011;8124;48.634;8.120;2022-12-20T16:47:23;39.30;;;35.10;;
16039;SDS011;8124;48.634;8.120;2022-12-20T16:52:26;38.97;;;34.80;;
16039;SDS011;8124;48.634;8.120;2022-12-20T16:57:31;39.20;;;34.92;;
16039;SDS011;8124;48.634;8.120;2022-12-20T17:02:33;38.90;;;34.05;;
16039;SDS011;8124;48.634;8.120;2022-12-20T17:07:36;39.80;;;35.15;;
16039;SDS011;8124;48.634;8.120;2022-12-20T17:12:43;38.80;;;34.70;;
16039;SDS011;8124;48.634;8.120;2022-12-20T17:17:46;37.72;;;33.72;;
16039;SDS011;8124;48.634;8.120;2022-12-20T17:22:50;39.17;;;34.00;;
16039;SDS011;8124;48.634;8.120;2022-12-20T17:27:57;38.30;;;34.20;;
16039;SDS011;8124;48.634;8.120;2022-12-20T17:33:00;40.78;;;34.33;;
16039;SDS011;8124;48.634;8.120;2022-12-20T17:38:02;39.10;;;34.33;;
16039;SDS011;8124;48.634;8.120;2022-12-20T17:43:09;37.80;;;33.78;;
16039;SDS011;8124;48.634;8.120;2022-12-20T17:48:14;38.92;;;34.03;;
16039;SDS011;8124;48.634;8.120;2022-12-20T17:53:17;38.35;;;34.15;;
16039;SDS011;8124;48.634;8.120;2022-12-20T17:58:23;39.60;;;35.08;;
16039;SDS011;8124;48.634;8.120;2022-12-20T18:03:26;38.75;;;34.38;;
16039;SDS011;8124;48.634;8.120;2022-12-20T18:08:49;38.47;;;34.38;;
16039;SDS011;8124;48.634;8.120;2022-12-20T18:13:55;38.80;;;34.60;;
16039;SDS011;8124;48.634;8.120;2022-12-20T18:18:59;38.05;;;33.72;;
16039;SDS011;8124;48.634;8.120;2022-12-20T18:24:03;39.28;;;33.75;;
16039;SDS011;8124;48.634;8.120;2022-12-20T18:29:08;38.90;;;34.63;;
16039;SDS011;8124;48.634;8.120;2022-12-20T18:39:22;39.28;;;34.53;;
16039;SDS011;8124;48.634;8.120;2022-12-20T18:44:26;40.90;;;35.42;;
16039;SDS011;8124;48.634;8.120;2022-12-20T18:49:30;40.00;;;34.97;;
16039;SDS011;8124;48.634;8.120;2022-12-20T18:54:34;44.65;;;35.75;;
16039;SDS011;8124;48.634;8.120;2022-12-20T18:59:39;40.28;;;34.88;;
16039;SDS011;8124;48.634;8.120;2022-12-20T19:04:42;38.63;;;34.42;;
16039;SDS011;8124;48.634;8.120;2022-12-20T19:09:45;40.22;;;35.05;;
16039;SDS011;8124;48.634;8.120;2022-12-20T19:14:50;38.85;;;34.60;;
16039;SDS011;8124;48.634;8.120;2022-12-20T19:19:53;38.55;;;34.35;;
16039;SDS011;8124;48.634;8.120;2022-12-20T19:24:56;43.95;;;38.90;;
16039;SDS011;8124;48.634;8.120;2022-12-20T19:30:00;39.35;;;35.15;;
16039;SDS011;8124;48.634;8.120;2022-12-20T19:35:05;39.42;;;34.67;;
16039;SDS011;8124;48.634;8.120;2022-12-20T19:40:29;38.40;;;34.22;;
16039;SDS011;8124;48.634;8.120;2022-12-20T19:45:36;52.50;;;42.83;;
16039;SDS011;8124;48.634;8.120;2022-12-20T19:50:39;57.55;;;46.50;;
16039;SDS011;8124;48.634;8.120;2022-12-20T19:55:50;56.72;;;46.40;;
16039;SDS011;8124;48.634;8.120;2022-12-20T20:00:54;56.80;;;45.33;;
16039;SDS011;8124;48.634;8.120;2022-12-20T20:06:04;54.95;;;45.38;;
16039;SDS011;8124;48.634;8.120;2022-12-20T20:11:08;54.30;;;44.53;;
16039;SDS011;8124;48.634;8.120;2022-12-20T20:16:13;50.90;;;43.53;;
16039;SDS011;8124;48.634;8.120;2022-12-20T20:21:22;53.80;;;45.33;;
16039;SDS011;8124;48.634;8.120;2022-12-20T20:26:26;58.88;;;46.50;;
16039;SDS011;8124;48.634;8.120;2022-12-20T20:31:33;55.33;;;44.25;;
16039;SDS011;8124;48.634;8.120;2022-12-20T20:36:36;54.90;;;45.10;;
16039;SDS011;8124;48.634;8.120;2022-12-20T20:41:39;47.40;;;41.03;;
16039;SDS011;8124;48.634;8.120;2022-12-20T20:46:44;40.30;;;35.83;;
16039;SDS011;8124;48.634;8.120;2022-12-20T20:51:47;39.50;;;35.20;;
16039;SDS011;8124;48.634;8.120;2022-12-20T20:56:50;39.38;;;34.67;;
16039;SDS011;8124;48.634;8.120;2022-12-20T21:01:54;44.92;;;35.70;;
16039;SDS011;8124;48.634;8.120;2022-12-20T21:06:57;38.38;;;34.13;;
16039;SDS011;8124;48.634;8.120;2022-12-20T21:12:00;38.70;;;34.50;;
16039;SDS011;8124;48.634;8.120;2022-12-20T21:17:05;38.55;;;34.33;;
16039;SDS011;8124;48.634;8.120;2022-12-20T21:22:08;38.50;;;34.35;;
16039;SDS011;8124;48.634;8.120;2022-12-20T21:27:11;38.55;;;34.42;;
16039;SDS011;8124;48.634;8.120;2022-12-20T21:32:15;39.78;;;34.90;;
16039;SDS011;8124;48.634;8.120;2022-12-20T21:37:18;42.65;;;37.58;;
16039;SDS011;8124;48.634;8.120;2022-12-20T21:42:21;38.97;;;34.78;;
16039;SDS011;8124;48.634;8.120;2022-12-20T21:47:34;38.55;;;34.45;;
16039;SDS011;8124;48.634;8.120;2022-12-20T21:52:37;40.08;;;35.78;;
16039;SDS011;8124;48.634;8.120;2022-12-20T21:57:41;39.25;;;34.88;;
16039;SDS011;8124;48.634;8.120;2022-12-20T22:02:45;39.15;;;34.95;;
16039;SDS011;8124;48.634;8.120;2022-12-20T22:07:48;40.08;;;34.70;;
16039;SDS011;8124;48.634;8.120;2022-12-20T22:12:51;39.20;;;34.88;;
16039;SDS011;8124;48.634;8.120;2022-12-20T22:17:56;39.33;;;34.63;;
16039;SDS011;8124;48.634;8.120;2022-12-20T22:22:59;38.47;;;34.30;;
16039;SDS011;8124;48.634;8.120;2022-12-20T22:28:01;38.83;;;34.53;;
16039;SDS011;8124;48.634;8.120;2022-12-20T22:33:07;39.35;;;34.33;;
16039;SDS011;8124;48.634;8.120;2022-12-20T22:38:10;38.80;;;34.60;;
16039;SDS011;8124;48.634;8.120;2022-12-20T22:43:13;39.42;;;35.13;;
16039;SDS011;8124;48.634;8.120;2022-12-20T22:48:17;38.33;;;34.00;;
16039;SDS011;8124;48.634;8.120;2022-12-20T22:53:20;38.45;;;34.13;;
16039;SDS011;8124;48.634;8.120;2022-12-20T22:58:22;39.70;;;34.92;;
16039;SDS011;8124;48.634;8.120;2022-12-20T23:03:27;39.50;;;34.28;;
16039;SDS011;8124;48.634;8.120;2022-12-20T23:08:32;38.15;;;34.05;;
16039;SDS011;8124;48.634;8.120;2022-12-20T23:13:36;38.70;;;34.50;;
16039;SDS011;8124;48.634;8.120;2022-12-20T23:18:58;38.72;;;34.30;;
16039;SDS011;8124;48.634;8.120;2022-12-20T23:24:02;38.13;;;34.03;;
16039;SDS011;8124;48.634;8.120;2022-12-20T23:29:06;38.55;;;34.30;;
16039;SDS011;8124;48.634;8.120;2022-12-20T23:34:11;39.13;;;34.03;;
16039;SDS011;8124;48.634;8.120;2022-12-20T23:39:13;38.58;;;34.38;;
16039;SDS011;8124;48.634;8.120;2022-12-20T23:44:16;38.60;;;34.40;;
16039;SDS011;8124;48.634;8.120;2022-12-20T23:49:20;38.40;;;34.15;;
16039;SDS011;8124;48.634;8.120;2022-12-20T23:54:23;38.22;;;34.03;;
